createdAt,value
2023-04-04T00:25:51.909Z,1.83
2023-04-04T00:28:22.042Z,2.40
2023-04-04T00:30:49.167Z,2.03
2023-04-04T00:33:15.903Z,2.20
2023-04-04T00:35:42.572Z,2.12
2023-04-04T00:39:25.010Z,2.28
2023-04-04T00:45:51.873Z,2.37
2023-04-04T00:54:48.231Z,2.00
2023-04-04T00:57:34.461Z,1.75
2023-04-04T01:00:06.499Z,1.90
2023-04-04T01:02:33.529Z,1.90
2023-04-04T01:05:00.704Z,2.08
2023-04-04T01:07:45.712Z,2.47
2023-04-04T01:10:36.760Z,1.98
2023-04-04T01:13:09.669Z,2.00
2023-04-04T01:21:06.285Z,2.37
2023-04-04T01:23:43.720Z,2.10
2023-04-04T01:29:09.294Z,2.17
2023-04-04T01:31:41.883Z,2.00
2023-04-04T01:34:11.434Z,1.90
2023-04-04T01:56:41.126Z,2.25
2023-04-04T01:59:07.849Z,2.10
2023-04-04T02:01:35.027Z,2.05
2023-04-04T02:04:02.527Z,2.03
2023-04-04T02:06:29.360Z,2.30
2023-04-04T02:08:56.288Z,2.00
2023-04-04T02:11:23.241Z,2.33
2023-04-04T02:13:50.044Z,2.50
2023-04-04T02:16:16.696Z,2.08
2023-04-04T02:18:43.348Z,2.05
2023-04-04T02:21:09.911Z,2.65
2023-04-04T02:23:36.492Z,2.10
2023-04-04T02:26:03.034Z,1.80
2023-04-04T02:28:30.216Z,2.20
2023-04-04T02:31:00.589Z,2.15
2023-04-04T02:33:27.196Z,2.45
2023-04-04T02:35:57.400Z,2.17
2023-04-04T02:38:24.084Z,2.20
2023-04-04T02:41:08.322Z,2.20
2023-04-04T02:43:34.881Z,2.40
2023-04-04T02:46:08.084Z,2.08
2023-04-04T02:48:41.356Z,2.00
2023-04-04T02:51:08.099Z,1.95
2023-04-04T02:53:53.099Z,1.90
2023-04-04T02:56:28.797Z,2.58
2023-04-04T02:58:55.682Z,2.20
2023-04-04T03:01:22.411Z,2.53
2023-04-04T03:03:49.174Z,2.50
2023-04-04T03:06:15.806Z,2.78
2023-04-04T03:08:42.427Z,3.85
2023-04-04T03:16:20.203Z,2.20
2023-04-04T03:18:47.130Z,2.03
2023-04-04T03:21:14.030Z,2.25
2023-04-04T03:23:41.188Z,2.03
2023-04-04T03:30:24.870Z,2.37
2023-04-04T03:32:51.513Z,2.17
2023-04-04T03:35:18.057Z,2.05
2023-04-04T03:37:44.630Z,2.28
2023-04-04T03:40:11.582Z,2.10
2023-04-04T03:42:38.148Z,2.00
2023-04-04T03:45:04.898Z,2.50
2023-04-04T03:47:31.472Z,2.62
2023-04-04T03:49:58.129Z,2.40
2023-04-04T03:54:59.062Z,2.40
2023-04-04T04:00:34.955Z,2.28
2023-04-04T04:03:01.542Z,2.40
2023-04-04T04:20:00.354Z,2.33
2023-04-04T04:22:26.924Z,2.45
2023-04-04T04:24:53.480Z,2.30
2023-04-04T04:27:20.255Z,2.50
2023-04-04T04:29:46.960Z,2.20
2023-04-04T04:32:17.116Z,2.15
2023-04-04T04:34:43.829Z,2.22
2023-04-04T04:37:10.480Z,2.10
2023-04-04T04:39:37.232Z,2.25
2023-04-04T04:42:03.843Z,2.40
2023-04-04T04:44:30.561Z,2.20
2023-04-04T04:46:57.197Z,2.30
2023-04-04T04:49:23.926Z,2.83
2023-04-04T04:51:50.511Z,2.60
2023-04-04T04:54:17.081Z,2.50
2023-04-04T04:56:43.626Z,2.10
2023-04-04T04:59:11.425Z,2.97
2023-04-04T05:01:59.877Z,3.83
2023-04-04T05:04:46.508Z,3.25
2023-04-04T05:07:13.068Z,2.85
2023-04-04T05:09:39.694Z,3.05
2023-04-04T05:12:06.429Z,2.75
2023-04-04T05:14:32.980Z,2.53
2023-04-04T05:17:11.660Z,6.03
2023-04-04T05:19:38.217Z,7.35
2023-04-04T05:22:04.836Z,9.98
2023-04-04T05:24:31.432Z,6.32
2023-04-04T05:26:58.049Z,25.85
2023-04-04T05:29:24.609Z,5.95
2023-04-04T05:31:51.199Z,4.03
2023-04-04T05:34:17.819Z,7.18
2023-04-04T05:36:44.414Z,11.88
2023-04-04T05:39:11.029Z,5.15
2023-04-04T05:41:37.688Z,2.78
2023-04-04T05:44:04.371Z,5.20
2023-04-04T05:46:31.300Z,3.37
2023-04-04T05:49:07.222Z,3.00
2023-04-04T05:51:33.750Z,3.33
2023-04-04T05:54:00.291Z,2.60
2023-04-04T05:56:26.919Z,2.78
2023-04-04T05:58:53.491Z,2.80
2023-04-04T06:01:20.313Z,2.80
2023-04-04T06:03:46.941Z,2.50
2023-04-04T06:06:13.597Z,2.50
2023-04-04T06:08:53.001Z,2.67
2023-04-04T06:11:22.650Z,2.53
2023-04-04T06:13:49.896Z,2.80
2023-04-04T06:16:16.747Z,2.75
2023-04-04T06:18:43.353Z,2.80
2023-04-04T06:21:10.013Z,2.75
2023-04-04T06:23:37.929Z,2.20
2023-04-04T06:26:04.869Z,2.70
2023-04-04T06:28:31.404Z,2.33
2023-04-04T06:30:58.340Z,2.22
2023-04-04T06:33:25.011Z,2.20
2023-04-04T06:35:51.656Z,1.92
2023-04-04T06:38:18.292Z,2.30
2023-04-04T06:40:45.482Z,2.40
2023-04-04T06:43:12.346Z,2.70
2023-04-04T06:45:39.021Z,2.92
2023-04-04T06:48:05.737Z,3.80
2023-04-04T06:50:32.529Z,2.90
2023-04-04T06:53:04.056Z,2.37
2023-04-04T06:55:30.723Z,2.85
2023-04-04T06:57:57.327Z,3.10
2023-04-04T07:00:24.125Z,2.83
2023-04-04T07:02:56.739Z,2.75
2023-04-04T07:05:23.395Z,2.80
2023-04-04T07:07:54.631Z,2.87
2023-04-04T07:10:21.970Z,2.60
2023-04-04T07:12:48.621Z,2.78
2023-04-04T07:15:15.197Z,2.47
2023-04-04T07:17:41.785Z,2.50
2023-04-04T07:20:08.994Z,2.75
2023-04-04T07:22:39.990Z,2.72
2023-04-04T07:25:07.375Z,2.37
2023-04-04T07:27:34.290Z,2.50
2023-04-04T07:30:00.809Z,2.37
2023-04-04T07:32:27.432Z,2.47
2023-04-04T07:34:53.984Z,2.17
2023-04-04T07:37:21.584Z,2.35
2023-04-04T07:39:50.006Z,2.03
2023-04-04T07:42:22.951Z,3.33
2023-04-04T07:44:50.574Z,2.65
2023-04-04T07:47:18.029Z,2.83
2023-04-04T07:49:44.914Z,3.12
2023-04-04T07:52:11.937Z,2.83
2023-04-04T07:54:40.267Z,2.17
2023-04-04T07:57:09.758Z,2.33
2023-04-04T07:59:37.860Z,3.00
2023-04-04T08:06:15.996Z,2.40
2023-04-04T08:14:20.637Z,2.60
2023-04-04T08:16:48.366Z,2.17
2023-04-04T08:19:16.872Z,2.20
2023-04-04T08:21:44.604Z,2.28
2023-04-04T08:24:12.391Z,2.50
2023-04-04T08:26:38.954Z,2.08
2023-04-04T08:29:10.378Z,2.05
2023-04-04T08:31:37.370Z,2.30
2023-04-04T08:34:04.888Z,2.15
2023-04-04T08:40:19.654Z,2.03
2023-04-04T08:42:48.235Z,2.03
2023-04-04T08:45:19.390Z,2.10
2023-04-04T08:47:51.909Z,2.10
2023-04-04T08:50:19.601Z,2.03
2023-04-04T08:52:47.004Z,2.15
2023-04-04T08:57:49.367Z,1.90
2023-04-04T09:00:17.958Z,1.73
2023-04-04T09:03:15.627Z,2.17
2023-04-04T09:09:32.922Z,2.10
2023-04-04T09:12:02.145Z,2.10
2023-04-04T09:14:30.401Z,2.08
2023-04-04T09:16:57.452Z,2.20
2023-04-04T09:19:26.229Z,2.33
2023-04-04T09:21:55.660Z,2.40
2023-04-04T09:24:53.162Z,1.98
2023-04-04T09:27:20.427Z,2.10
2023-04-04T09:29:47.461Z,2.05
2023-04-04T09:32:16.313Z,2.17
2023-04-04T09:38:38.836Z,2.15
2023-04-04T09:41:11.786Z,2.00
2023-04-04T09:43:39.979Z,1.75
2023-04-04T09:46:07.863Z,2.62
2023-04-04T09:48:36.250Z,2.15
2023-04-04T09:51:21.606Z,1.87
2023-04-04T09:53:48.592Z,2.12
2023-04-04T09:56:15.655Z,2.28
2023-04-04T09:59:00.186Z,1.95
2023-04-04T10:01:30.327Z,2.00
2023-04-04T10:03:58.221Z,2.17
2023-04-04T10:06:25.598Z,1.90
2023-04-04T10:08:52.300Z,2.00
2023-04-04T10:11:48.574Z,2.25
2023-04-04T10:14:15.553Z,2.00
2023-04-04T10:16:45.653Z,2.10
2023-04-04T10:19:13.710Z,2.05
2023-04-04T10:21:40.938Z,2.00
2023-04-04T10:24:10.134Z,1.92
2023-04-04T10:26:37.576Z,1.62
2023-04-04T10:29:05.800Z,2.40
2023-04-04T10:31:36.279Z,1.85
2023-04-04T10:34:25.555Z,2.20
2023-04-04T10:36:57.209Z,2.03
2023-04-04T10:39:26.102Z,2.37
2023-04-04T10:41:53.804Z,2.15
2023-04-04T10:44:33.622Z,1.87
2023-04-04T10:47:09.288Z,2.00
2023-04-04T10:49:37.713Z,2.00
2023-04-04T10:52:04.543Z,1.90
2023-04-04T10:54:31.213Z,2.22
2023-04-04T10:57:02.148Z,1.95
2023-04-04T10:59:28.904Z,2.05
2023-04-04T11:01:59.661Z,1.87
2023-04-04T11:04:41.972Z,2.03
2023-04-04T11:07:10.460Z,1.87
2023-04-04T11:10:01.950Z,1.90
2023-04-04T11:12:34.271Z,1.73
2023-04-04T11:15:00.753Z,2.30
2023-04-04T11:17:49.038Z,2.10
2023-04-04T11:21:24.018Z,1.80
2023-04-04T11:24:28.184Z,2.00
2023-04-04T11:26:54.996Z,1.87
2023-04-04T11:29:52.427Z,1.80
2023-04-04T11:32:47.919Z,2.05
2023-04-04T11:35:19.846Z,1.90
2023-04-04T11:37:55.288Z,2.03
2023-04-04T11:40:34.602Z,2.45
2023-04-04T11:43:03.608Z,2.10
2023-04-04T11:45:31.130Z,1.87
2023-04-04T11:47:59.498Z,2.10
2023-04-04T11:50:26.324Z,1.50
2023-04-04T11:55:41.505Z,1.65
2023-04-04T11:58:13.291Z,2.22
2023-04-04T12:00:41.543Z,2.03
2023-04-04T12:03:11.664Z,1.77
2023-04-04T12:09:01.668Z,2.05
2023-04-04T12:11:31.039Z,1.90
2023-04-04T12:13:58.270Z,2.12
2023-04-04T12:16:24.901Z,2.15
2023-04-04T12:18:52.074Z,1.90
2023-04-04T12:24:00.477Z,2.03
2023-04-04T12:26:30.979Z,2.12
2023-04-04T12:28:58.469Z,2.08
2023-04-04T12:31:29.518Z,2.60
2023-04-04T12:34:41.098Z,2.28
2023-04-04T12:37:45.364Z,2.00
2023-04-04T12:40:11.974Z,2.30
2023-04-04T12:42:38.862Z,2.10
2023-04-04T12:45:07.331Z,2.10
2023-04-04T12:47:34.217Z,2.10
2023-04-04T12:50:01.158Z,2.80
2023-04-04T12:52:32.089Z,2.33
2023-04-04T12:55:08.127Z,2.22
2023-04-04T12:57:36.958Z,2.05
2023-04-04T13:00:06.590Z,2.25
2023-04-04T13:02:36.060Z,2.15
2023-04-04T13:05:03.630Z,1.77
2023-04-04T13:07:39.174Z,2.17
2023-04-04T13:10:06.513Z,2.12
2023-04-04T13:13:01.611Z,2.20
2023-04-04T13:15:50.418Z,2.17
2023-04-04T13:18:23.785Z,2.08
2023-04-04T13:20:55.502Z,1.98
2023-04-04T13:23:23.078Z,2.33
2023-04-04T13:25:52.277Z,2.22
2023-04-04T13:28:18.832Z,2.17
2023-04-04T13:30:49.433Z,2.40
2023-04-04T13:33:17.113Z,2.33
2023-04-04T13:35:44.822Z,2.20
2023-04-04T13:38:12.042Z,2.17
2023-04-04T13:40:38.991Z,1.92
2023-04-04T13:43:05.862Z,1.98
2023-04-04T13:45:35.915Z,2.10
2023-04-04T13:50:39.913Z,2.20
2023-04-04T13:53:07.743Z,2.20
2023-04-04T13:55:34.346Z,2.30
2023-04-04T13:58:01.211Z,2.00
2023-04-04T14:00:28.449Z,1.87
2023-04-04T14:02:57.230Z,2.00
2023-04-04T14:05:24.645Z,1.90
2023-04-04T14:07:51.224Z,2.22
2023-04-04T14:10:18.360Z,1.80
2023-04-04T14:12:45.021Z,2.60
2023-04-04T14:17:47.008Z,2.08
2023-04-04T14:20:13.586Z,2.42
2023-04-04T14:22:40.241Z,2.00
2023-04-04T14:25:07.393Z,2.30
2023-04-04T14:27:34.154Z,2.03
2023-04-04T14:30:00.806Z,1.70
2023-04-04T14:32:27.743Z,1.77
2023-04-04T14:34:54.349Z,1.75
2023-04-04T14:37:21.023Z,1.70
2023-04-04T14:39:47.617Z,1.90
2023-04-04T14:42:14.527Z,1.87
2023-04-04T14:44:42.154Z,2.10
2023-04-04T14:47:09.736Z,1.98
2023-04-04T14:49:36.743Z,2.20
2023-04-04T14:52:03.953Z,2.42
2023-04-04T14:54:30.612Z,2.15
2023-04-04T14:56:57.995Z,1.58
2023-04-04T14:59:24.744Z,1.95
2023-04-04T15:01:51.538Z,1.92
2023-04-04T15:04:18.193Z,2.12
2023-04-04T15:06:44.792Z,2.05
2023-04-04T15:09:12.885Z,1.80
2023-04-04T15:11:39.893Z,2.10
2023-04-04T15:14:06.649Z,1.83
2023-04-04T15:16:34.247Z,1.75
2023-04-04T15:19:01.075Z,1.75
2023-04-04T15:21:31.725Z,2.25
2023-04-04T15:23:58.449Z,2.00
2023-04-04T15:26:25.018Z,2.03
2023-04-04T15:28:51.927Z,2.92
2023-04-04T15:31:18.594Z,2.10
2023-04-04T15:33:45.346Z,2.00
2023-04-04T15:36:12.008Z,3.65
2023-04-04T15:38:39.998Z,2.03
2023-04-04T15:41:08.335Z,1.98
2023-04-04T15:43:36.452Z,2.00
2023-04-04T15:46:03.427Z,2.03
2023-04-04T15:48:30.140Z,2.08
2023-04-04T15:51:02.540Z,1.85
2023-04-04T15:53:32.499Z,2.30
2023-04-04T15:55:59.592Z,2.20
2023-04-04T15:58:26.580Z,2.30
2023-04-04T16:00:53.402Z,2.20
2023-04-04T16:03:22.704Z,2.17
2023-04-04T16:05:49.400Z,2.17
2023-04-04T16:08:16.186Z,2.03
2023-04-04T16:10:44.155Z,2.10
2023-04-04T16:13:11.326Z,2.70
2023-04-04T16:15:38.358Z,2.67
2023-04-04T16:18:05.510Z,2.33
2023-04-04T16:20:32.214Z,2.80
2023-04-04T16:22:58.763Z,3.37
2023-04-04T16:25:25.610Z,2.78
2023-04-04T16:27:52.390Z,2.37
2023-04-04T16:30:19.009Z,2.70
2023-04-04T16:32:49.290Z,2.33
2023-04-04T16:35:16.143Z,2.30
2023-04-04T16:37:42.728Z,2.58
2023-04-04T16:40:09.775Z,2.55
2023-04-04T16:42:36.488Z,2.65
2023-04-04T16:45:03.444Z,2.72
2023-04-04T16:47:30.167Z,3.25
2023-04-04T16:49:56.871Z,3.87
2023-04-04T16:52:23.434Z,3.58
2023-04-04T16:54:50.268Z,2.50
2023-04-04T16:57:17.344Z,3.62
2023-04-04T16:59:43.956Z,3.10
2023-04-04T17:02:10.838Z,2.92
2023-04-04T17:04:42.034Z,4.37
2023-04-04T17:07:08.882Z,3.92
2023-04-04T17:09:35.932Z,3.40
2023-04-04T17:12:03.495Z,3.00
2023-04-04T17:14:30.366Z,3.62
2023-04-04T17:17:00.713Z,3.10
2023-04-04T17:19:30.018Z,3.42
2023-04-04T17:21:57.631Z,2.78
2023-04-04T17:24:27.305Z,3.45
2023-04-04T17:26:57.125Z,2.95
2023-04-04T17:29:26.904Z,2.72
2023-04-04T17:31:55.652Z,2.87
2023-04-04T17:34:22.727Z,3.15
2023-04-04T17:36:50.204Z,4.40
2023-04-04T17:39:16.884Z,4.25
2023-04-04T17:41:46.701Z,6.90
2023-04-04T17:44:17.225Z,5.37
2023-04-04T17:46:45.176Z,8.00
2023-04-04T17:49:15.389Z,7.30
2023-04-04T17:51:42.176Z,7.93
2023-04-04T17:54:08.941Z,8.43
2023-04-04T17:56:35.794Z,5.78
2023-04-04T17:59:02.363Z,5.26
2023-04-04T18:01:29.471Z,4.15
2023-04-04T18:03:57.720Z,3.92
2023-04-04T18:06:24.504Z,3.42
2023-04-04T18:08:51.363Z,3.60
2023-04-04T18:11:18.117Z,3.55
2023-04-04T18:13:45.049Z,5.60
2023-04-04T18:16:11.738Z,5.80
2023-04-04T18:18:40.418Z,4.12
2023-04-04T18:21:08.463Z,4.53
2023-04-04T18:23:35.522Z,5.30
2023-04-04T18:26:02.224Z,4.32
2023-04-04T18:28:31.319Z,3.62
2023-04-04T18:30:59.466Z,4.32
2023-04-04T18:33:27.309Z,4.37
2023-04-04T18:35:54.678Z,5.30
2023-04-04T18:38:21.670Z,5.82
2023-04-04T18:40:48.286Z,4.35
2023-04-04T18:43:20.186Z,5.68
2023-04-04T18:45:47.050Z,4.68
2023-04-04T18:48:13.868Z,5.75
2023-04-04T18:50:41.069Z,5.10
2023-04-04T18:53:07.987Z,4.53
2023-04-04T18:55:34.655Z,4.78
2023-04-04T18:58:01.198Z,4.47
2023-04-04T19:00:27.895Z,3.92
2023-04-04T19:02:54.572Z,4.62
2023-04-04T19:05:24.203Z,4.65
2023-04-04T19:07:56.995Z,4.50
2023-04-04T19:10:23.712Z,5.87
2023-04-04T19:12:50.868Z,5.28
2023-04-04T19:15:17.504Z,4.90
2023-04-04T19:17:44.173Z,4.35
2023-04-04T19:20:12.413Z,5.00
2023-04-04T19:22:39.069Z,4.07
2023-04-04T19:25:06.274Z,4.68
2023-04-04T19:27:32.885Z,4.85
2023-04-04T19:29:59.526Z,5.20
2023-04-04T19:32:28.191Z,4.43
2023-04-04T19:34:55.374Z,4.62
2023-04-04T19:37:21.948Z,5.30
2023-04-04T19:39:49.564Z,4.03
2023-04-04T19:42:25.473Z,3.50
2023-04-04T19:44:52.020Z,3.65
2023-04-04T19:47:20.197Z,3.80
2023-04-04T19:49:50.897Z,4.30
2023-04-04T19:58:21.941Z,3.72
2023-04-04T20:00:48.478Z,3.37
2023-04-04T20:03:34.146Z,3.75
2023-04-04T20:06:28.354Z,3.20
2023-04-04T20:12:48.437Z,4.22
2023-04-04T20:15:37.855Z,3.92
2023-04-04T20:18:07.407Z,4.12
2023-04-04T20:20:50.393Z,3.62
2023-04-04T20:25:44.456Z,3.33
2023-04-04T20:28:22.727Z,3.35
2023-04-04T20:30:49.302Z,3.67
2023-04-04T20:33:32.293Z,3.85
2023-04-04T20:36:11.873Z,4.12
2023-04-04T20:38:41.047Z,3.70
2023-04-04T20:41:24.447Z,3.58
2023-04-04T20:43:53.190Z,3.90
2023-04-04T20:46:21.928Z,3.65
2023-04-04T20:48:50.243Z,3.42
2023-04-04T20:51:33.160Z,3.35
2023-04-04T20:54:21.417Z,3.37
2023-04-04T20:57:08.352Z,3.72
2023-04-04T20:59:37.482Z,3.60
2023-04-04T21:02:23.518Z,3.45
2023-04-04T21:04:51.951Z,3.78
2023-04-04T21:07:42.312Z,3.87
2023-04-04T21:10:45.331Z,4.00
2023-04-04T21:13:11.969Z,4.85
2023-04-04T21:15:39.296Z,4.50
2023-04-04T21:18:10.171Z,3.83
2023-04-04T21:21:21.321Z,3.87
2023-04-04T21:23:53.281Z,3.10
2023-04-04T21:29:26.168Z,3.40
2023-04-04T21:31:55.646Z,3.22
2023-04-04T21:34:24.659Z,3.60
2023-04-04T21:36:56.419Z,3.50
2023-04-04T21:39:25.585Z,3.65
2023-04-04T21:45:17.690Z,3.55
2023-04-04T21:48:07.146Z,3.47
2023-04-04T21:50:33.724Z,3.60
2023-04-04T22:06:51.700Z,3.53
2023-04-04T22:09:38.844Z,4.15
2023-04-04T22:26:20.301Z,3.37
2023-04-04T22:28:48.126Z,3.97
2023-04-04T22:31:15.654Z,3.50
2023-04-04T22:33:42.237Z,3.80
2023-04-04T22:36:10.116Z,3.90
2023-04-04T22:38:39.368Z,4.05
2023-04-04T22:43:41.238Z,4.85
2023-04-04T22:46:09.203Z,4.18
2023-04-04T22:48:41.207Z,3.83
2023-04-04T22:51:08.292Z,3.60
2023-04-04T22:53:34.849Z,3.97
2023-04-04T22:56:29.342Z,3.97
2023-04-04T22:59:21.315Z,3.87
2023-04-04T23:01:52.353Z,3.72
2023-04-04T23:04:19.009Z,3.70
2023-04-04T23:06:46.393Z,4.05
2023-04-04T23:09:36.801Z,3.58
2023-04-04T23:12:03.422Z,3.95
2023-04-04T23:14:30.880Z,3.70
2023-04-04T23:16:57.524Z,3.80
2023-04-04T23:19:24.120Z,3.70
2023-04-04T23:21:52.607Z,3.90
2023-04-04T23:24:34.429Z,4.15
2023-04-04T23:27:01.102Z,3.30
2023-04-04T23:29:30.633Z,3.87
2023-04-04T23:31:57.217Z,3.87
2023-04-04T23:34:23.830Z,4.03
2023-04-04T23:40:11.940Z,3.92
2023-04-04T23:42:38.493Z,4.37
2023-04-04T23:45:05.530Z,4.15
2023-04-04T23:47:32.308Z,3.80
2023-04-04T23:49:58.938Z,3.60
2023-04-04T23:52:25.861Z,4.20
